Time;durP1;ratioP1;P1;durP2;ratioP2;P2;SDS_P1;SDS_P2;PMS_P1;PMS_P2;Temp;Humidity;BMP_temperature;BMP_pressure;BME280_temperature;BME280_humidity;BME280_pressure;Samples;Min_cycle;Max_cycle;Signal;HPM_P1;HPM_P2
2023/06/15 00:01:00;;;;;;;4.47;2.15;;;22.30;64.60;;;;;;6168514;23;20011;-93
2023/06/15 00:03:25;;;;;;;5.68;2.60;;;22.30;64.80;;;;;;6177213;23;20052;-90
2023/06/15 00:06:02;;;;;;;;;;;;;;;;;;;;;
2023/06/15 00:08:28;;;;;;;5.68;2.70;;;22.20;64.80;;;;;;6159234;23;20093;-92
2023/06/15 00:10:54;;;;;;;4.95;2.25;;;22.30;64.80;;;;;;6159928;23;19997;-92
2023/06/15 00:13:19;;;;;;;3.15;2.10;;;22.20;64.70;;;;;;6157154;23;20419;-93
2023/06/15 00:15:45;;;;;;;5.10;2.20;;;22.20;64.70;;;;;;6183141;23;20186;-91
2023/06/15 00:18:13;;;;;;;8.07;2.35;;;22.30;64.70;;;;;;6158399;23;20009;-92
2023/06/15 00:20:41;;;;;;;3.33;2.22;;;22.30;64.90;;;;;;6158207;23;20352;-92
2023/06/15 00:23:09;;;;;;;5.07;2.17;;;22.20;64.80;;;;;;6159305;23;20005;-91
2023/06/15 00:25:37;;;;;;;7.55;2.55;;;22.20;65.00;;;;;;6159806;23;20008;-91
2023/06/15 00:28:11;;;;;;;6.10;2.60;;;22.20;64.90;;;;;;6159674;23;20084;-92
2023/06/15 00:30:37;;;;;;;4.50;2.60;;;22.10;64.90;;;;;;6180324;23;20017;-91
2023/06/15 00:33:03;;;;;;;6.50;2.55;;;22.10;64.90;;;;;;6182527;23;19998;-92
2023/06/15 00:35:30;;;;;;;7.13;2.70;;;22.10;64.90;;;;;;6182652;23;19993;-91
2023/06/15 00:37:56;;;;;;;5.03;2.58;;;22.10;65.10;;;;;;6165565;23;20088;-91
2023/06/15 00:40:22;;;;;;;5.63;2.95;;;22.10;65.20;;;;;;6158110;23;20005;-91
2023/06/15 00:42:50;;;;;;;6.22;2.53;;;22.00;65.60;;;;;;6158000;23;20009;-92
2023/06/15 00:45:16;;;;;;;8.45;2.85;;;21.90;65.60;;;;;;6157807;23;20010;-92
2023/06/15 00:47:42;;;;;;;6.68;2.85;;;21.90;65.70;;;;;;6157618;23;20005;-90
2023/06/15 00:50:19;;;;;;;4.20;2.72;;;21.90;66.10;;;;;;6157215;23;20008;-92
2023/06/15 00:52:46;;;;;;;9.20;2.70;;;21.90;66.30;;;;;;6156922;23;20013;-91
2023/06/15 00:55:13;;;;;;;5.68;2.92;;;21.90;66.50;;;;;;6157618;23;20008;-91
2023/06/15 00:57:44;;;;;;;6.20;2.85;;;21.90;66.60;;;;;;6157591;23;20001;-91
2023/06/15 01:00:17;;;;;;;4.70;2.70;;;21.80;66.80;;;;;;6160333;23;20432;-91
2023/06/15 01:02:44;;;;;;;5.45;3.13;;;21.90;67.10;;;;;;6159158;23;20012;-92
2023/06/15 01:05:10;;;;;;;5.03;3.40;;;21.80;67.10;;;;;;6168450;23;20024;-92
2023/06/15 01:07:40;;;;;;;5.15;3.30;;;21.80;67.30;;;;;;6164263;23;20013;-92
2023/06/15 01:10:12;;;;;;;6.13;2.80;;;21.80;67.40;;;;;;6172974;23;20006;-92
2023/06/15 01:12:45;;;;;;;6.50;3.10;;;21.80;67.80;;;;;;6204812;23;20005;-92
2023/06/15 01:15:15;;;;;;;7.60;3.15;;;21.80;68.00;;;;;;6192010;23;19997;-92
2023/06/15 01:17:44;;;;;;;10.37;3.17;;;21.80;68.30;;;;;;6164673;23;20005;-92
2023/06/15 01:20:15;;;;;;;7.25;3.67;;;21.80;68.50;;;;;;6159766;23;20417;-91
2023/06/15 01:22:59;;;;;;;6.65;3.65;;;21.70;68.70;;;;;;6161249;23;20008;-91
2023/06/15 01:25:43;;;;;;;8.88;3.60;;;21.70;68.90;;;;;;6160447;23;20080;-92
2023/06/15 01:28:10;;;;;;;5.90;3.25;;;21.70;69.20;;;;;;6160294;23;20006;-91
2023/06/15 01:30:46;;;;;;;6.50;3.28;;;21.70;69.30;;;;;;6160105;23;20017;-91
2023/06/15 01:33:14;;;;;;;10.48;3.72;;;21.70;69.50;;;;;;6159666;23;19989;-92
2023/06/15 01:35:43;;;;;;;5.45;3.25;;;21.70;69.70;;;;;;6159627;23;20001;-92
2023/06/15 01:38:12;;;;;;;12.82;3.75;;;21.70;69.90;;;;;;6160159;23;20001;-92
2023/06/15 01:40:42;;;;;;;6.25;3.45;;;21.60;69.90;;;;;;6159749;23;20005;-91
2023/06/15 01:43:11;;;;;;;7.50;4.03;;;21.60;70.00;;;;;;6159764;23;20037;-91
2023/06/15 01:45:42;;;;;;;6.13;3.50;;;21.60;70.20;;;;;;6162005;23;20021;-92
2023/06/15 01:48:08;;;;;;;;;;;21.60;70.40;;;;;;6178974;23;20118;-91
2023/06/15 01:50:35;;;;;;;8.60;3.72;;;21.60;71.00;;;;;;6183831;23;19888;-92
2023/06/15 01:53:02;;;;;;;6.35;3.47;;;21.50;70.70;;;;;;6180808;23;20006;-91
2023/06/15 01:55:28;;;;;;;10.30;3.85;;;21.50;70.80;;;;;;6190652;23;20006;-91
2023/06/15 01:57:55;;;;;;;6.75;3.65;;;21.50;70.90;;;;;;6162694;23;20008;-92
2023/06/15 02:00:23;;;;;;;8.77;3.60;;;21.50;71.20;;;;;;6161445;23;20005;-92
2023/06/15 02:02:49;;;;;;;5.25;3.70;;;21.50;71.30;;;;;;6160667;23;20002;-91
2023/06/15 02:05:15;;;;;;;9.93;3.72;;;21.40;71.30;;;;;;6159074;23;20060;-91
2023/06/15 02:07:41;;;;;;;5.82;3.65;;;21.40;71.40;;;;;;6159298;23;20368;-92
2023/06/15 02:10:10;;;;;;;10.43;3.85;;;21.40;71.70;;;;;;6183965;23;19998;-92
2023/06/15 02:12:36;;;;;;;7.75;3.53;;;21.40;71.80;;;;;;6158859;23;20010;-92
2023/06/15 02:15:02;;;;;;;7.68;3.80;;;21.40;72.10;;;;;;6160078;23;20009;-92
2023/06/15 02:17:48;;;;;;;6.82;3.97;;;21.30;72.20;;;;;;6162533;23;20037;-92
2023/06/15 02:20:14;;;;;;;7.80;3.80;;;21.30;72.30;;;;;;6183392;23;19989;-91
2023/06/15 02:22:40;;;;;;;6.80;3.60;;;21.30;72.30;;;;;;6189924;23;20006;-92
2023/06/15 02:25:08;;;;;;;9.25;3.88;;;21.30;72.40;;;;;;6169820;23;20017;-91
2023/06/15 02:27:34;;;;;;;7.95;4.35;;;21.20;72.60;;;;;;6191286;23;20021;-92
2023/06/15 02:30:00;;;;;;;10.25;3.40;;;21.20;72.80;;;;;;6159505;23;19997;-92
2023/06/15 02:32:35;;;;;;;4.95;3.63;;;21.20;72.90;;;;;;6160126;23;20041;-92
2023/06/15 02:35:05;;;;;;;7.75;3.88;;;21.20;73.10;;;;;;6183944;23;20088;-92
2023/06/15 02:37:31;;;;;;;;;;;21.10;73.30;;;;;;6159328;23;20388;-92
2023/06/15 02:39:57;;;;;;;6.55;4.03;;;21.10;73.80;;;;;;6159133;23;19901;-92
2023/06/15 02:42:23;;;;;;;7.22;3.40;;;21.10;73.60;;;;;;6158583;23;20013;-92
2023/06/15 02:44:49;;;;;;;37.92;5.00;;;21.10;73.80;;;;;;6183706;23;20327;-92
2023/06/15 02:47:17;;;;;;;7.50;4.10;;;21.00;73.90;;;;;;6158763;23;20016;-92
2023/06/15 02:49:43;;;;;;;12.15;3.55;;;21.00;74.30;;;;;;6159605;23;20001;-91
2023/06/15 02:52:09;;;;;;;6.88;3.95;;;21.00;74.40;;;;;;6159884;23;20001;-90
2023/06/15 02:54:36;;;;;;;6.57;3.72;;;20.90;74.30;;;;;;6160349;23;20009;-91
2023/06/15 02:57:07;;;;;;;10.43;3.83;;;20.90;74.60;;;;;;6159923;23;20077;-92
2023/06/15 02:59:36;;;;;;;9.38;3.65;;;20.90;74.60;;;;;;6159079;23;20029;-92
2023/06/15 03:02:06;;;;;;;5.90;3.67;;;20.90;74.90;;;;;;6159907;23;20005;-92
2023/06/15 03:04:32;;;;;;;8.25;3.88;;;20.90;75.00;;;;;;6188403;23;20005;-91
2023/06/15 03:06:59;;;;;;;9.50;3.97;;;20.80;75.10;;;;;;6181705;23;20029;-91
2023/06/15 03:09:25;;;;;;;8.15;3.78;;;20.80;75.20;;;;;;6183422;23;20049;-91
2023/06/15 03:11:51;;;;;;;9.32;3.60;;;20.70;75.20;;;;;;6183282;23;19998;-90
2023/06/15 03:14:20;;;;;;;7.15;4.10;;;20.70;75.30;;;;;;6165350;23;20096;-91
2023/06/15 03:16:47;;;;;;;5.72;3.55;;;20.70;75.40;;;;;;6158586;23;20005;-91
2023/06/15 03:19:17;;;;;;;5.43;3.58;;;20.60;75.60;;;;;;6159583;23;20005;-92
2023/06/15 03:21:47;;;;;;;10.37;3.87;;;20.60;76.50;;;;;;6163916;23;19998;-91
2023/06/15 03:24:16;;;;;;;9.07;4.72;;;20.50;75.90;;;;;;6168417;23;20006;-91
2023/06/15 03:26:44;;;;;;;9.75;4.00;;;20.50;76.00;;;;;;6174244;23;20006;-92
2023/06/15 03:29:10;;;;;;;9.82;4.45;;;20.50;76.20;;;;;;6169836;23;20323;-92
2023/06/15 03:31:40;;;;;;;8.82;3.90;;;20.50;76.40;;;;;;6161605;23;20016;-93
2023/06/15 03:34:07;;;;;;;7.38;4.15;;;20.40;76.70;;;;;;6161608;23;20458;-91
2023/06/15 03:36:32;;;;;;;6.15;3.75;;;20.40;77.60;;;;;;6160183;23;20005;-90
2023/06/15 03:38:58;;;;;;;8.40;3.90;;;20.40;77.00;;;;;;6159212;23;20110;-91
2023/06/15 03:41:27;;;;;;;7.57;3.72;;;20.40;77.20;;;;;;6157804;23;20025;-91
2023/06/15 03:43:52;;;;;;;7.07;3.95;;;20.40;77.50;;;;;;6158050;23;20009;-91
2023/06/15 03:46:19;;;;;;;7.20;3.88;;;20.40;77.60;;;;;;6158002;23;20013;-90
2023/06/15 03:48:48;;;;;;;8.88;4.05;;;20.30;77.70;;;;;;6157383;23;20093;-90
2023/06/15 03:51:17;;;;;;;9.38;4.22;;;20.30;77.80;;;;;;6157226;23;20324;-91
2023/06/15 03:53:44;;;;;;;6.05;3.60;;;20.30;78.00;;;;;;6157584;23;20015;-91
2023/06/15 03:56:12;;;;;;;7.07;4.13;;;20.30;78.00;;;;;;6157585;23;20005;-91
2023/06/15 03:58:42;;;;;;;7.53;3.90;;;20.20;78.00;;;;;;6157825;23;20001;-91
2023/06/15 04:01:14;;;;;;;10.40;4.72;;;20.30;78.20;;;;;;6158144;23;20006;-92
2023/06/15 04:03:43;;;;;;;8.07;4.15;;;20.20;78.40;;;;;;6158243;23;20432;-90
2023/06/15 04:06:08;;;;;;;6.93;4.13;;;20.20;78.30;;;;;;6158497;23;20012;-92
2023/06/15 04:08:39;;;;;;;9.98;4.30;;;20.20;78.20;;;;;;6159455;23;20068;-89
2023/06/15 04:11:05;;;;;;;8.27;3.83;;;20.20;78.40;;;;;;6157168;23;20010;-92
2023/06/15 04:13:33;;;;;;;9.27;4.20;;;20.20;78.30;;;;;;6158519;23;20145;-92
2023/06/15 04:15:58;;;;;;;8.50;4.10;;;20.10;78.40;;;;;;6158390;23;20009;-92
2023/06/15 04:18:32;;;;;;;5.97;3.63;;;20.10;78.40;;;;;;6183924;23;20294;-93
2023/06/15 04:20:57;;;;;;;6.95;3.78;;;20.10;78.40;;;;;;6160156;23;20005;-91
2023/06/15 04:23:23;;;;;;;6.63;4.05;;;20.10;78.50;;;;;;6165675;23;20028;-91
2023/06/15 04:25:51;;;;;;;9.48;4.20;;;20.10;78.70;;;;;;6180626;23;20016;-91
2023/06/15 04:28:17;;;;;;;7.60;4.28;;;20.00;78.70;;;;;;6182280;23;19990;-91
2023/06/15 04:30:46;;;;;;;8.93;3.78;;;20.00;78.90;;;;;;6204007;23;20012;-91
2023/06/15 04:33:15;;;;;;;6.03;4.03;;;20.00;78.90;;;;;;6164401;23;20440;-91
2023/06/15 04:35:45;;;;;;;9.63;3.85;;;20.00;79.10;;;;;;6171683;23;20001;-90
2023/06/15 04:38:21;;;;;;;7.35;4.10;;;20.00;79.10;;;;;;6174106;23;20006;-91
2023/06/15 04:40:51;;;;;;;6.80;3.67;;;20.00;79.10;;;;;;6158477;23;20064;-90
2023/06/15 04:43:18;;;;;;;8.35;4.00;;;20.00;79.30;;;;;;6133056;23;20010;-90
2023/06/15 04:45:51;;;;;;;6.72;3.65;;;20.00;79.40;;;;;;6158567;23;20061;-92
2023/06/15 04:48:19;;;;;;;10.40;4.40;;;20.00;79.50;;;;;;6155728;23;20068;-81
2023/06/15 04:50:48;;;;;;;6.13;3.88;;;20.00;79.80;;;;;;6156454;23;20543;-81
2023/06/15 04:53:16;;;;;;;9.30;4.55;;;20.00;80.60;;;;;;6180106;23;20010;-80
2023/06/15 04:55:42;;;;;;;7.50;3.75;;;20.00;80.10;;;;;;6158141;23;20001;-81
2023/06/15 04:58:07;;;;;;;7.45;4.00;;;20.00;80.00;;;;;;6182383;23;20020;-91
2023/06/15 05:00:36;;;;;;;10.70;4.18;;;20.00;80.10;;;;;;6136269;23;20085;-90
2023/06/15 05:03:08;;;;;;;16.00;4.28;;;20.10;80.30;;;;;;6160104;23;20010;-92
2023/06/15 05:05:39;;;;;;;7.25;3.72;;;20.10;80.40;;;;;;6136480;23;20429;-91
2023/06/15 05:08:08;;;;;;;7.97;4.10;;;20.10;80.40;;;;;;6184329;23;20005;-90
2023/06/15 05:10:39;;;;;;;7.97;4.47;;;20.10;80.30;;;;;;6160331;23;20092;-92
2023/06/15 05:13:05;;;;;;;6.30;4.13;;;20.10;80.20;;;;;;6159071;23;20080;-91
2023/06/15 05:15:35;;;;;;;10.90;4.32;;;20.10;80.30;;;;;;6159949;23;20032;-92
2023/06/15 05:18:00;;;;;;;7.38;3.63;;;20.10;80.30;;;;;;6160031;23;20006;-92
2023/06/15 05:20:26;;;;;;;7.88;4.68;;;20.20;80.40;;;;;;6160662;23;20041;-92
2023/06/15 05:22:52;;;;;;;9.13;4.85;;;20.20;80.70;;;;;;6160838;23;20376;-91
2023/06/15 05:25:19;;;;;;;6.72;3.85;;;20.20;80.60;;;;;;6160784;23;20044;-91
2023/06/15 05:27:47;;;;;;;8.32;4.55;;;20.20;80.70;;;;;;6160494;23;20084;-92
2023/06/15 05:30:13;;;;;;;6.93;4.13;;;20.30;80.50;;;;;;6184552;23;20006;-90
2023/06/15 05:32:49;;;;;;;12.05;4.38;;;20.20;80.30;;;;;;6186686;23;20060;-92
2023/06/15 05:35:41;;;;;;;7.03;4.60;;;20.30;80.30;;;;;;6162654;23;20009;-90
2023/06/15 05:38:20;;;;;;;9.75;4.20;;;20.30;80.20;;;;;;6161429;23;20013;-92
2023/06/15 05:40:54;;;;;;;8.23;4.80;;;20.30;80.10;;;;;;6170292;23;20033;-92
2023/06/15 05:43:20;;;;;;;9.23;4.30;;;20.30;80.00;;;;;;6201314;23;20012;-93
2023/06/15 05:45:48;;;;;;;8.23;3.90;;;20.30;80.10;;;;;;6182703;23;20010;-92
2023/06/15 05:48:39;;;;;;;10.32;4.65;;;20.40;80.00;;;;;;6179311;23;20017;-91
2023/06/15 05:51:05;;;;;;;9.27;4.55;;;20.40;80.50;;;;;;6175056;23;20005;-91
2023/06/15 05:53:43;;;;;;;11.68;4.70;;;20.40;80.10;;;;;;6164770;23;20029;-91
2023/06/15 05:56:11;;;;;;;8.82;4.90;;;20.40;80.20;;;;;;6161535;23;20001;-91
2023/06/15 05:58:41;;;;;;;8.32;4.63;;;20.50;80.10;;;;;;6160765;23;20013;-91
2023/06/15 06:01:06;;;;;;;7.82;4.80;;;20.50;80.10;;;;;;6160903;23;20420;-92
2023/06/15 06:03:35;;;;;;;9.45;4.47;;;20.50;79.90;;;;;;6159520;23;20093;-92
2023/06/15 06:06:02;;;;;;;9.68;4.47;;;20.50;80.10;;;;;;6160104;23;20010;-91
2023/06/15 06:08:28;;;;;;;10.25;4.75;;;20.50;79.90;;;;;;6160242;23;20001;-91
2023/06/15 06:10:53;;;;;;;8.27;4.53;;;20.60;80.20;;;;;;6159502;23;20005;-90
2023/06/15 06:13:19;;;;;;;10.93;4.78;;;20.60;80.40;;;;;;6158929;23;20009;-91
2023/06/15 06:15:50;;;;;;;10.65;4.70;;;20.60;80.40;;;;;;6159555;23;20029;-91
2023/06/15 06:18:19;;;;;;;7.97;4.15;;;20.70;80.30;;;;;;6134640;23;20009;-91
2023/06/15 06:20:48;;;;;;;6.93;4.13;;;20.70;80.00;;;;;;6158921;23;19997;-92
2023/06/15 06:23:13;;;;;;;10.35;4.90;;;20.70;79.90;;;;;;6158227;23;20005;-92
2023/06/15 06:25:39;;;;;;;7.13;4.75;;;20.70;80.00;;;;;;6158821;23;20138;-92
2023/06/15 06:28:05;;;;;;;9.45;4.65;;;20.80;79.90;;;;;;6159245;23;20012;-91
2023/06/15 06:30:36;;;;;;;7.65;4.25;;;20.80;79.70;;;;;;6158909;23;20393;-91
2023/06/15 06:33:04;;;;;;;7.57;4.28;;;20.80;79.70;;;;;;6158730;23;20026;-93
2023/06/15 06:35:30;;;;;;;8.75;4.72;;;20.90;79.90;;;;;;6158882;23;20005;-91
2023/06/15 06:37:56;;;;;;;9.65;4.13;;;20.90;80.20;;;;;;6183981;23;20005;-92
2023/06/15 06:40:25;;;;;;;7.85;4.05;;;20.90;80.50;;;;;;6159038;23;20006;-91
2023/06/15 06:42:55;;;;;;;9.77;4.82;;;21.00;80.40;;;;;;6159963;23;20412;-93
2023/06/15 06:45:20;;;;;;;9.23;4.65;;;21.00;79.60;;;;;;6160303;23;20001;-93
2023/06/15 06:47:46;;;;;;;8.82;5.00;;;21.10;79.10;;;;;;6159203;23;20013;-91
2023/06/15 06:50:17;;;;;;;25.85;4.93;;;21.10;79.10;;;;;;6186145;23;20002;-92
2023/06/15 06:52:43;;;;;;;;;;;21.10;79.10;;;;;;6172128;23;20009;-91
2023/06/15 06:55:16;;;;;;;10.90;4.68;;;21.20;79.40;;;;;;6180762;23;19923;-91
2023/06/15 06:57:42;;;;;;;11.20;4.40;;;21.20;79.30;;;;;;6158924;23;20432;-92
2023/06/15 07:00:10;;;;;;;9.80;4.80;;;21.20;79.30;;;;;;6162020;23;20089;-92
2023/06/15 07:02:47;;;;;;;9.40;4.88;;;21.20;79.30;;;;;;6180920;23;20013;-91
2023/06/15 07:05:15;;;;;;;7.45;3.90;;;21.30;79.10;;;;;;6183440;23;20013;-92
2023/06/15 07:07:44;;;;;;;9.75;4.50;;;21.30;78.90;;;;;;6178233;23;20006;-91
2023/06/15 07:10:12;;;;;;;10.98;4.57;;;21.30;79.10;;;;;;6170499;23;19981;-92
2023/06/15 07:12:43;;;;;;;15.23;5.07;;;21.40;79.30;;;;;;6170995;23;20045;-91
2023/06/15 07:15:09;;;;;;;11.05;3.88;;;21.40;79.60;;;;;;6161361;23;20017;-92
2023/06/15 07:17:34;;;;;;;10.13;3.95;;;21.50;79.80;;;;;;6159009;23;20069;-92
2023/06/15 07:20:10;;;;;;;9.07;4.10;;;21.50;80.00;;;;;;6158717;23;19998;-92
2023/06/15 07:22:50;;;;;;;9.07;4.60;;;21.60;80.00;;;;;;6158755;23;20013;-92
2023/06/15 07:25:16;;;;;;;10.30;4.63;;;21.70;80.00;;;;;;6159142;23;20011;-93
2023/06/15 07:27:42;;;;;;;9.35;4.00;;;21.70;79.70;;;;;;6158967;23;20008;-92
2023/06/15 07:30:08;;;;;;;10.45;3.78;;;21.80;79.30;;;;;;6158783;23;20005;-90
2023/06/15 07:32:33;;;;;;;6.53;3.40;;;21.80;79.30;;;;;;6157998;23;20009;-90
2023/06/15 07:34:59;;;;;;;7.03;4.53;;;21.90;79.80;;;;;;6156924;23;20076;-87
2023/06/15 07:37:25;;;;;;;9.20;4.28;;;21.90;79.90;;;;;;6180365;23;20005;-86
2023/06/15 07:39:51;;;;;;;7.68;3.95;;;22.00;79.50;;;;;;6155950;23;20002;-86
2023/06/15 07:42:16;;;;;;;7.38;4.10;;;22.00;79.40;;;;;;6158046;23;20148;-90
2023/06/15 07:44:44;;;;;;;9.75;4.70;;;22.00;79.50;;;;;;6157621;23;20002;-90
2023/06/15 07:47:11;;;;;;;9.75;4.15;;;22.10;79.60;;;;;;6133300;23;20009;-90
2023/06/15 07:49:39;;;;;;;7.43;4.53;;;22.20;78.80;;;;;;6157942;23;20499;-91
2023/06/15 07:52:06;;;;;;;7.40;4.25;;;22.20;77.80;;;;;;6158367;23;20005;-91
2023/06/15 07:54:32;;;;;;;12.25;4.35;;;22.30;77.60;;;;;;6157953;23;20013;-91
2023/06/15 07:56:57;;;;;;;6.68;4.18;;;22.30;77.50;;;;;;6158474;23;20025;-90
2023/06/15 07:59:23;;;;;;;7.00;3.97;;;22.40;77.50;;;;;;6160453;23;20001;-90
2023/06/15 08:01:51;;;;;;;7.63;4.63;;;22.40;77.60;;;;;;6171085;23;19993;-91
2023/06/15 08:04:17;;;;;;;6.70;4.35;;;22.50;77.60;;;;;;6163391;23;20063;-90
2023/06/15 08:06:46;;;;;;;7.72;3.78;;;22.50;77.30;;;;;;6157990;23;20006;-90
2023/06/15 08:09:12;;;;;;;7.28;3.88;;;22.60;77.00;;;;;;6157281;23;20093;-89
2023/06/15 08:11:40;;;;;;;8.70;4.78;;;22.60;77.20;;;;;;6181691;23;20008;-91
2023/06/15 08:14:23;;;;;;;12.55;4.63;;;22.70;77.60;;;;;;6157342;23;20024;-91
2023/06/15 08:16:49;;;;;;;8.82;4.80;;;22.70;77.80;;;;;;6158033;23;19997;-92
2023/06/15 08:19:17;;;;;;;7.75;4.63;;;22.80;76.80;;;;;;6164808;23;20004;-90
2023/06/15 08:21:46;;;;;;;8.57;4.05;;;22.80;76.60;;;;;;6166327;23;20005;-90
2023/06/15 08:24:13;;;;;;;7.80;3.60;;;22.90;76.00;;;;;;6181283;23;20009;-90
2023/06/15 08:26:38;;;;;;;8.48;3.88;;;22.90;75.80;;;;;;6181807;23;19997;-90
2023/06/15 08:29:04;;;;;;;6.97;3.42;;;23.00;76.20;;;;;;6168660;23;19998;-89
2023/06/15 08:31:30;;;;;;;9.07;3.67;;;23.00;76.10;;;;;;6182285;23;20061;-91
2023/06/15 08:33:56;;;;;;;10.32;3.40;;;23.10;75.40;;;;;;6157633;23;20380;-90
2023/06/15 08:36:22;;;;;;;6.30;3.10;;;23.20;75.00;;;;;;6156400;23;20001;-91
2023/06/15 08:38:49;;;;;;;5.90;3.58;;;23.20;74.90;;;;;;6158557;23;20001;-91
2023/06/15 08:41:16;;;;;;;8.23;3.05;;;23.30;74.80;;;;;;6158419;23;20121;-91
2023/06/15 08:43:46;;;;;;;7.22;3.38;;;23.30;75.10;;;;;;6157710;23;20009;-90
2023/06/15 08:46:37;;;;;;;;;;;;;;;;;;;;;
2023/06/15 08:49:20;;;;;;;;;;;23.40;74.60;;;;;;6161888;23;20080;-91
2023/06/15 08:52:20;;;;;;;;;;;;;;;;;;;;;
2023/06/15 08:54:56;;;;;;;5.35;2.83;;;23.50;74.30;;;;;;6177372;23;20061;-91
2023/06/15 08:57:39;;;;;;;;;;;;;;;;;;;;;
2023/06/15 09:00:20;;;;;;;9.20;3.38;;;23.60;73.60;;;;;;6162464;23;20020;-92
2023/06/15 09:02:53;;;;;;;6.93;2.97;;;23.70;73.70;;;;;;6186330;23;20494;-91
2023/06/15 09:05:46;;;;;;;;;;;;;;;;;;;;;
2023/06/15 09:08:24;;;;;;;5.53;2.85;;;23.80;73.20;;;;;;6162406;23;20029;-91
2023/06/15 09:10:50;;;;;;;6.55;3.10;;;23.90;73.30;;;;;;6173956;23;20530;-92
2023/06/15 09:13:16;;;;;;;5.35;2.90;;;23.90;73.20;;;;;;6178775;23;20029;-90
2023/06/15 09:15:58;;;;;;;5.18;3.08;;;24.00;72.90;;;;;;6160449;23;20013;-92
2023/06/15 09:18:24;;;;;;;5.25;3.17;;;24.10;72.50;;;;;;6184234;23;20036;-91
2023/06/15 09:20:53;;;;;;;6.22;2.92;;;24.10;72.50;;;;;;6158560;23;20012;-91
2023/06/15 09:23:26;;;;;;;7.88;2.63;;;24.20;72.30;;;;;;6183650;23;20009;-91
2023/06/15 09:25:56;;;;;;;7.15;2.42;;;24.20;72.00;;;;;;6160916;23;19997;-91
2023/06/15 09:28:26;;;;;;;6.38;2.67;;;24.30;71.90;;;;;;6161684;23;20028;-90
2023/06/15 09:30:55;;;;;;;5.53;2.72;;;24.40;72.10;;;;;;6168171;23;20002;-91
2023/06/15 09:33:21;;;;;;;5.55;2.42;;;24.50;72.00;;;;;;6170892;23;20156;-92
2023/06/15 09:36:01;;;;;;;5.15;2.55;;;24.50;71.60;;;;;;6173722;23;19981;-90
2023/06/15 09:38:41;;;;;;;7.25;3.10;;;24.60;70.80;;;;;;6183646;23;20792;-93
2023/06/15 09:41:07;;;;;;;8.02;3.08;;;24.60;71.10;;;;;;6184193;23;20036;-91
2023/06/15 09:43:34;;;;;;;5.55;3.28;;;24.70;69.00;;;;;;6181372;23;20004;-90
2023/06/15 09:46:09;;;;;;;6.28;2.83;;;24.80;68.30;;;;;;6178250;23;19998;-91
2023/06/15 09:48:43;;;;;;;9.73;3.40;;;24.80;66.80;;;;;;6180328;23;19988;-90
2023/06/15 09:51:16;;;;;;;5.20;2.42;;;24.90;66.80;;;;;;6205128;23;20088;-92
2023/06/15 09:53:47;;;;;;;7.13;3.00;;;25.00;67.20;;;;;;6176979;23;20035;-92
2023/06/15 09:56:18;;;;;;;4.35;2.92;;;25.10;67.30;;;;;;6176359;23;20005;-91
2023/06/15 09:58:48;;;;;;;6.63;2.75;;;25.10;66.70;;;;;;6177361;23;20012;-92
2023/06/15 10:01:24;;;;;;;4.80;2.60;;;25.20;65.60;;;;;;6177281;23;20003;-92
2023/06/15 10:03:52;;;;;;;4.95;2.72;;;25.20;64.90;;;;;;6181917;23;20001;-91
2023/06/15 10:06:35;;;;;;;8.45;3.15;;;25.30;65.80;;;;;;6183707;23;20005;-92
2023/06/15 10:09:06;;;;;;;5.45;2.78;;;25.40;65.70;;;;;;6182222;23;20001;-92
2023/06/15 10:11:36;;;;;;;6.30;3.33;;;25.40;64.00;;;;;;6180904;23;20006;-92
2023/06/15 10:14:34;;;;;;;9.88;2.90;;;25.40;63.50;;;;;;6181475;23;20028;-92
2023/06/15 10:17:08;;;;;;;9.15;3.10;;;25.50;63.90;;;;;;6171527;23;19989;-93
2023/06/15 10:19:40;;;;;;;5.20;2.83;;;25.60;63.90;;;;;;6183333;23;19993;-93
2023/06/15 10:22:12;;;;;;;5.40;2.53;;;25.70;64.30;;;;;;6181533;23;20006;-92
2023/06/15 10:24:45;;;;;;;5.70;2.85;;;25.70;63.20;;;;;;6175488;23;20009;-91
2023/06/15 10:27:17;;;;;;;4.45;2.83;;;25.80;63.30;;;;;;6171294;23;20004;-92
2023/06/15 10:30:12;;;;;;;5.93;3.53;;;25.90;63.50;;;;;;6163924;23;20009;-92
2023/06/15 10:32:47;;;;;;;5.10;2.70;;;25.90;63.40;;;;;;6159287;23;20072;-90
2023/06/15 10:35:41;;;;;;;6.47;3.08;;;25.90;63.90;;;;;;6159535;23;20069;-92
2023/06/15 10:38:15;;;;;;;5.72;2.42;;;26.00;63.60;;;;;;6159294;23;20006;-89
2023/06/15 10:40:47;;;;;;;5.45;2.85;;;26.10;63.70;;;;;;6157084;23;20084;-87
2023/06/15 10:43:20;;;;;;;6.03;3.22;;;26.10;63.50;;;;;;6157759;23;20084;-87
2023/06/15 10:45:47;;;;;;;5.20;2.90;;;26.10;62.90;;;;;;6156429;23;20033;-88
2023/06/15 10:48:27;;;;;;;5.43;2.90;;;26.20;62.70;;;;;;6182974;23;19998;-87
2023/06/15 10:51:07;;;;;;;4.07;2.67;;;26.20;63.10;;;;;;6157668;23;20029;-88
2023/06/15 10:53:42;;;;;;;6.25;2.88;;;26.20;63.40;;;;;;6164948;23;20002;-88
2023/06/15 10:56:16;;;;;;;5.72;2.75;;;26.30;63.50;;;;;;6177396;23;20010;-87
2023/06/15 10:58:54;;;;;;;8.48;3.25;;;26.30;64.10;;;;;;6180566;23;20084;-86
2023/06/15 11:01:27;;;;;;;6.70;2.90;;;26.30;63.20;;;;;;6163235;23;20005;-87
2023/06/15 11:03:54;;;;;;;7.25;2.88;;;26.40;63.00;;;;;;6156679;23;20012;-87
2023/06/15 11:06:22;;;;;;;6.95;3.20;;;26.40;63.00;;;;;;6156788;23;20002;-87
2023/06/15 11:08:50;;;;;;;5.63;2.92;;;26.50;62.80;;;;;;6158330;23;20013;-87
2023/06/15 11:11:19;;;;;;;6.78;2.80;;;26.50;62.90;;;;;;6156766;23;20005;-88
2023/06/15 11:14:05;;;;;;;8.55;3.22;;;26.60;62.10;;;;;;6156805;23;20021;-88
2023/06/15 11:16:34;;;;;;;7.00;2.70;;;26.60;60.30;;;;;;6156706;23;20004;-88
2023/06/15 11:19:20;;;;;;;7.15;3.03;;;26.70;60.40;;;;;;6156475;23;20335;-87
2023/06/15 11:22:01;;;;;;;4.53;2.90;;;26.70;60.60;;;;;;6156463;23;20002;-87
2023/06/15 11:24:33;;;;;;;6.43;2.90;;;26.70;60.20;;;;;;6157554;23;20009;-88
2023/06/15 11:27:02;;;;;;;10.25;3.20;;;26.70;59.60;;;;;;6158259;23;20006;-86
2023/06/15 11:29:32;;;;;;;5.18;2.63;;;26.70;58.90;;;;;;6172697;23;20002;-86
2023/06/15 11:32:00;;;;;;;;;;;26.70;58.80;;;;;;6168773;23;20009;-86
2023/06/15 11:34:26;;;;;;;7.65;3.00;;;26.70;59.00;;;;;;6156542;23;19910;-87
2023/06/15 11:36:56;;;;;;;6.22;2.70;;;26.70;59.20;;;;;;6156443;23;20044;-85
2023/06/15 11:39:23;;;;;;;8.73;3.17;;;26.70;58.90;;;;;;6156353;23;20005;-85
2023/06/15 11:41:49;;;;;;;5.32;2.92;;;26.70;58.30;;;;;;6155502;23;20371;-85
2023/06/15 11:44:16;;;;;;;4.32;2.88;;;26.80;58.80;;;;;;6155382;23;20013;-86
2023/06/15 11:46:42;;;;;;;5.15;2.78;;;26.80;58.40;;;;;;6155693;23;20006;-86
2023/06/15 11:49:12;;;;;;;9.63;3.10;;;26.90;58.00;;;;;;6155513;23;20044;-86
2023/06/15 11:51:42;;;;;;;6.40;2.80;;;26.90;57.40;;;;;;6156044;23;20431;-85
2023/06/15 11:54:11;;;;;;;4.93;2.55;;;26.90;57.30;;;;;;6154869;23;20014;-93
2023/06/15 11:56:44;;;;;;;5.63;2.90;;;27.00;58.20;;;;;;6184599;23;20080;-90
2023/06/15 11:59:16;;;;;;;5.20;2.85;;;27.00;59.00;;;;;;6159125;23;20002;-92
2023/06/15 12:01:57;;;;;;;4.78;2.70;;;27.00;58.70;;;;;;6159817;23;20068;-92
2023/06/15 12:04:32;;;;;;;7.80;2.72;;;27.10;57.70;;;;;;6162290;23;20010;-93
2023/06/15 12:07:01;;;;;;;6.07;2.85;;;27.10;57.70;;;;;;6163675;23;19998;-92
2023/06/15 12:12:30;;;;;;;5.43;2.70;;;27.20;57.70;;;;;;6182117;23;20037;-91
2023/06/15 12:14:58;;;;;;;8.23;2.50;;;27.30;57.60;;;;;;6182934;23;20013;-92
2023/06/15 12:17:33;;;;;;;4.63;2.50;;;27.30;57.00;;;;;;6174937;23;19998;-93
2023/06/15 12:20:10;;;;;;;6.47;3.05;;;27.40;55.20;;;;;;6165883;23;20009;-93
2023/06/15 12:22:40;;;;;;;5.20;3.05;;;27.40;55.80;;;;;;6162078;23;20005;-94
2023/06/15 12:25:06;;;;;;;5.10;2.38;;;27.50;55.70;;;;;;6159530;23;20297;-94
2023/06/15 12:27:32;;;;;;;6.00;2.67;;;27.60;56.30;;;;;;6159129;23;20056;-94
2023/06/15 12:30:11;;;;;;;7.75;3.47;;;27.60;56.90;;;;;;6159113;23;20335;-94
2023/06/15 12:32:43;;;;;;;5.13;2.83;;;27.70;57.30;;;;;;6159232;23;20021;-94
2023/06/15 12:35:37;;;;;;;6.32;2.83;;;27.70;57.60;;;;;;6162804;23;20012;-93
2023/06/15 12:38:08;;;;;;;6.57;3.08;;;27.70;57.50;;;;;;6173690;23;20002;-92
2023/06/15 12:40:44;;;;;;;5.75;2.75;;;27.80;57.70;;;;;;6181537;23;20012;-93
2023/06/15 12:43:10;;;;;;;8.25;3.00;;;27.80;57.90;;;;;;6159509;23;20022;-93
2023/06/15 12:45:36;;;;;;;6.03;2.55;;;27.70;57.80;;;;;;6160281;23;20053;-93
2023/06/15 12:48:04;;;;;;;4.15;2.50;;;27.80;56.80;;;;;;6160601;23;20009;-92
2023/06/15 12:50:33;;;;;;;8.15;3.65;;;27.80;56.30;;;;;;6160167;23;20009;-92
2023/06/15 12:53:07;;;;;;;10.43;3.10;;;27.90;56.20;;;;;;6163739;23;20009;-93
2023/06/15 12:55:32;;;;;;;4.07;2.65;;;28.00;55.70;;;;;;6158984;23;20005;-94
2023/06/15 12:57:58;;;;;;;5.95;2.58;;;28.00;55.50;;;;;;6158610;23;20025;-93
2023/06/15 13:00:26;;;;;;;7.63;2.63;;;28.00;55.70;;;;;;6191253;23;20039;-93
2023/06/15 13:02:57;;;;;;;5.30;2.60;;;28.10;55.30;;;;;;6160788;23;20064;-93
2023/06/15 13:05:23;;;;;;;4.70;2.60;;;28.20;54.70;;;;;;6158706;23;20374;-93
2023/06/15 13:07:49;;;;;;;5.70;2.67;;;28.20;54.20;;;;;;6159300;23;20428;-93
2023/06/15 13:10:24;;;;;;;6.18;2.92;;;28.20;54.50;;;;;;6162852;23;20049;-93